sensor_id;sensor_type;location;lat;lon;timestamp;temperature;humidity
20068;DHT22;10194;50.824;7.134;2023-07-13T00:00:06;17.10;99.90
20068;DHT22;10194;50.824;7.134;2023-07-13T00:02:35;17.00;99.90
20068;DHT22;10194;50.824;7.134;2023-07-13T00:05:01;16.90;99.90
20068;DHT22;10194;50.824;7.134;2023-07-13T00:07:27;16.80;99.90
20068;DHT22;10194;50.824;7.134;2023-07-13T00:09:53;16.70;99.90
20068;DHT22;10194;50.824;7.134;2023-07-13T00:12:34;16.50;99.90
20068;DHT22;10194;50.824;7.134;2023-07-13T00:15:05;16.40;99.90
20068;DHT22;10194;50.824;7.134;2023-07-13T00:17:33;16.30;99.90
20068;DHT22;10194;50.824;7.134;2023-07-13T00:19:59;16.20;99.90
20068;DHT22;10194;50.824;7.134;2023-07-13T00:22:25;16.10;99.90
20068;DHT22;10194;50.824;7.134;2023-07-13T00:24:52;16.10;99.90
20068;DHT22;10194;50.824;7.134;2023-07-13T00:27:19;16.00;99.90
20068;DHT22;10194;50.824;7.134;2023-07-13T00:29:44;16.00;99.90
20068;DHT22;10194;50.824;7.134;2023-07-13T00:32:10;15.90;99.90
20068;DHT22;10194;50.824;7.134;2023-07-13T00:34:38;15.90;99.90
20068;DHT22;10194;50.824;7.134;2023-07-13T00:37:05;15.80;99.90
20068;DHT22;10194;50.824;7.134;2023-07-13T00:39:32;15.80;99.90
20068;DHT22;10194;50.824;7.134;2023-07-13T00:42:00;15.70;99.90
20068;DHT22;10194;50.824;7.134;2023-07-13T00:44:26;15.60;99.90
20068;DHT22;10194;50.824;7.134;2023-07-13T00:46:52;15.50;99.90
20068;DHT22;10194;50.824;7.134;2023-07-13T00:49:20;15.50;99.90
20068;DHT22;10194;50.824;7.134;2023-07-13T00:52:08;15.50;99.90
20068;DHT22;10194;50.824;7.134;2023-07-13T00:54:44;15.50;99.90
20068;DHT22;10194;50.824;7.134;2023-07-13T00:57:14;15.40;99.90
20068;DHT22;10194;50.824;7.134;2023-07-13T00:59:50;15.40;99.90
20068;DHT22;10194;50.824;7.134;2023-07-13T01:02:21;15.40;99.90
20068;DHT22;10194;50.824;7.134;2023-07-13T01:04:48;15.30;99.90
20068;DHT22;10194;50.824;7.134;2023-07-13T01:07:14;15.40;99.90
20068;DHT22;10194;50.824;7.134;2023-07-13T01:09:40;15.40;99.90
20068;DHT22;10194;50.824;7.134;2023-07-13T01:12:07;15.40;99.90
20068;DHT22;10194;50.824;7.134;2023-07-13T01:14:33;15.30;99.90
20068;DHT22;10194;50.824;7.134;2023-07-13T01:16:59;15.20;99.90
20068;DHT22;10194;50.824;7.134;2023-07-13T01:19:44;15.20;99.90
20068;DHT22;10194;50.824;7.134;2023-07-13T01:22:16;15.20;99.90
20068;DHT22;10194;50.824;7.134;2023-07-13T01:24:47;15.10;99.90
20068;DHT22;10194;50.824;7.134;2023-07-13T01:27:16;15.00;99.90
20068;DHT22;10194;50.824;7.134;2023-07-13T01:29:46;15.00;99.90
20068;DHT22;10194;50.824;7.134;2023-07-13T01:32:16;15.00;99.90
20068;DHT22;10194;50.824;7.134;2023-07-13T01:34:48;14.80;99.90
20068;DHT22;10194;50.824;7.134;2023-07-13T01:37:14;14.70;99.90
20068;DHT22;10194;50.824;7.134;2023-07-13T01:39:40;14.70;99.90
20068;DHT22;10194;50.824;7.134;2023-07-13T01:42:06;14.60;99.90
20068;DHT22;10194;50.824;7.134;2023-07-13T01:44:32;14.60;99.90
20068;DHT22;10194;50.824;7.134;2023-07-13T01:46:58;14.50;99.90
20068;DHT22;10194;50.824;7.134;2023-07-13T01:49:24;14.40;99.90
20068;DHT22;10194;50.824;7.134;2023-07-13T01:51:49;14.50;99.90
20068;DHT22;10194;50.824;7.134;2023-07-13T01:54:15;14.60;99.90
20068;DHT22;10194;50.824;7.134;2023-07-13T01:56:41;14.60;99.90
20068;DHT22;10194;50.824;7.134;2023-07-13T01:59:08;14.60;99.90
20068;DHT22;10194;50.824;7.134;2023-07-13T02:01:34;14.60;99.90
20068;DHT22;10194;50.824;7.134;2023-07-13T02:04:00;14.60;99.90
20068;DHT22;10194;50.824;7.134;2023-07-13T02:06:26;14.60;99.90
20068;DHT22;10194;50.824;7.134;2023-07-13T02:08:51;14.60;99.90
20068;DHT22;10194;50.824;7.134;2023-07-13T02:11:17;14.60;99.90
20068;DHT22;10194;50.824;7.134;2023-07-13T02:13:43;14.60;99.90
20068;DHT22;10194;50.824;7.134;2023-07-13T02:16:09;14.60;99.90
20068;DHT22;10194;50.824;7.134;2023-07-13T02:18:35;14.50;99.90
20068;DHT22;10194;50.824;7.134;2023-07-13T02:21:01;14.50;99.90
20068;DHT22;10194;50.824;7.134;2023-07-13T02:23:28;14.50;99.90
20068;DHT22;10194;50.824;7.134;2023-07-13T02:25:58;14.50;99.90
20068;DHT22;10194;50.824;7.134;2023-07-13T02:28:24;14.50;99.90
20068;DHT22;10194;50.824;7.134;2023-07-13T02:30:50;14.50;99.90
20068;DHT22;10194;50.824;7.134;2023-07-13T02:33:16;14.50;99.90
20068;DHT22;10194;50.824;7.134;2023-07-13T02:35:42;14.50;99.90
20068;DHT22;10194;50.824;7.134;2023-07-13T02:38:07;14.40;99.90
20068;DHT22;10194;50.824;7.134;2023-07-13T02:40:34;14.40;99.90
20068;DHT22;10194;50.824;7.134;2023-07-13T02:43:01;14.50;99.90
20068;DHT22;10194;50.824;7.134;2023-07-13T02:45:28;14.60;99.90
20068;DHT22;10194;50.824;7.134;2023-07-13T02:47:54;14.70;99.90
20068;DHT22;10194;50.824;7.134;2023-07-13T02:50:20;14.90;99.90
20068;DHT22;10194;50.824;7.134;2023-07-13T02:52:46;14.90;99.90
20068;DHT22;10194;50.824;7.134;2023-07-13T02:55:12;14.90;99.90
20068;DHT22;10194;50.824;7.134;2023-07-13T02:57:38;14.80;99.90
20068;DHT22;10194;50.824;7.134;2023-07-13T03:00:04;14.90;99.90
20068;DHT22;10194;50.824;7.134;2023-07-13T03:02:31;15.00;99.90
20068;DHT22;10194;50.824;7.134;2023-07-13T03:04:58;14.80;99.90
20068;DHT22;10194;50.824;7.134;2023-07-13T03:07:24;14.80;99.90
20068;DHT22;10194;50.824;7.134;2023-07-13T03:09:57;14.80;99.90
20068;DHT22;10194;50.824;7.134;2023-07-13T03:12:24;14.80;99.90
20068;DHT22;10194;50.824;7.134;2023-07-13T03:14:50;14.80;99.90
20068;DHT22;10194;50.824;7.134;2023-07-13T03:17:16;14.80;99.90
20068;DHT22;10194;50.824;7.134;2023-07-13T03:19:42;14.70;99.90
20068;DHT22;10194;50.824;7.134;2023-07-13T03:22:09;14.70;99.90
20068;DHT22;10194;50.824;7.134;2023-07-13T03:24:35;14.70;99.90
20068;DHT22;10194;50.824;7.134;2023-07-13T03:27:05;14.70;99.90
20068;DHT22;10194;50.824;7.134;2023-07-13T03:29:31;14.70;99.90
20068;DHT22;10194;50.824;7.134;2023-07-13T03:31:57;14.70;99.90
20068;DHT22;10194;50.824;7.134;2023-07-13T03:34:23;14.70;99.90
20068;DHT22;10194;50.824;7.134;2023-07-13T03:36:49;14.80;99.90
20068;DHT22;10194;50.824;7.134;2023-07-13T03:39:14;14.90;99.90
20068;DHT22;10194;50.824;7.134;2023-07-13T03:41:40;15.10;99.90
20068;DHT22;10194;50.824;7.134;2023-07-13T03:44:06;15.30;99.90
20068;DHT22;10194;50.824;7.134;2023-07-13T03:46:32;15.40;99.90
20068;DHT22;10194;50.824;7.134;2023-07-13T03:48:59;15.50;99.90
20068;DHT22;10194;50.824;7.134;2023-07-13T03:51:25;15.60;99.90
20068;DHT22;10194;50.824;7.134;2023-07-13T03:53:51;15.60;99.90
20068;DHT22;10194;50.824;7.134;2023-07-13T03:56:18;15.70;99.90
20068;DHT22;10194;50.824;7.134;2023-07-13T03:58:47;15.70;99.90
20068;DHT22;10194;50.824;7.134;2023-07-13T04:01:15;15.80;99.90
20068;DHT22;10194;50.824;7.134;2023-07-13T04:03:42;15.90;99.90
20068;DHT22;10194;50.824;7.134;2023-07-13T04:06:16;16.00;99.90
20068;DHT22;10194;50.824;7.134;2023-07-13T04:08:52;16.00;99.90
20068;DHT22;10194;50.824;7.134;2023-07-13T04:11:20;16.00;99.90
20068;DHT22;10194;50.824;7.134;2023-07-13T04:13:48;15.90;99.90
20068;DHT22;10194;50.824;7.134;2023-07-13T04:16:14;15.90;99.90
20068;DHT22;10194;50.824;7.134;2023-07-13T04:18:40;15.80;99.90
20068;DHT22;10194;50.824;7.134;2023-07-13T04:21:07;15.80;99.90
20068;DHT22;10194;50.824;7.134;2023-07-13T04:23:35;15.70;99.90
20068;DHT22;10194;50.824;7.134;2023-07-13T04:26:02;15.80;99.90
20068;DHT22;10194;50.824;7.134;2023-07-13T04:28:28;15.70;99.90
20068;DHT22;10194;50.824;7.134;2023-07-13T04:30:54;15.60;99.90
20068;DHT22;10194;50.824;7.134;2023-07-13T04:33:20;15.60;99.90
20068;DHT22;10194;50.824;7.134;2023-07-13T04:35:51;15.60;99.90
20068;DHT22;10194;50.824;7.134;2023-07-13T04:38:20;15.60;99.90
20068;DHT22;10194;50.824;7.134;2023-07-13T04:40:48;15.70;99.90
20068;DHT22;10194;50.824;7.134;2023-07-13T04:43:14;15.70;99.90
20068;DHT22;10194;50.824;7.134;2023-07-13T04:45:40;15.70;99.90
20068;DHT22;10194;50.824;7.134;2023-07-13T04:48:06;15.80;99.90
20068;DHT22;10194;50.824;7.134;2023-07-13T04:50:32;15.90;99.90
20068;DHT22;10194;50.824;7.134;2023-07-13T04:52:58;16.00;99.90
20068;DHT22;10194;50.824;7.134;2023-07-13T04:55:24;16.00;99.90
20068;DHT22;10194;50.824;7.134;2023-07-13T04:57:51;16.00;99.90
20068;DHT22;10194;50.824;7.134;2023-07-13T05:00:16;16.10;99.90
20068;DHT22;10194;50.824;7.134;2023-07-13T05:02:45;16.20;99.90
20068;DHT22;10194;50.824;7.134;2023-07-13T05:05:11;16.20;99.90
20068;DHT22;10194;50.824;7.134;2023-07-13T05:07:37;16.30;99.90
20068;DHT22;10194;50.824;7.134;2023-07-13T05:10:03;16.40;99.90
20068;DHT22;10194;50.824;7.134;2023-07-13T05:12:30;16.50;99.90
20068;DHT22;10194;50.824;7.134;2023-07-13T05:14:56;16.50;99.90
20068;DHT22;10194;50.824;7.134;2023-07-13T05:17:22;16.50;99.90
20068;DHT22;10194;50.824;7.134;2023-07-13T05:19:48;16.60;99.90
20068;DHT22;10194;50.824;7.134;2023-07-13T05:22:13;16.60;99.90
20068;DHT22;10194;50.824;7.134;2023-07-13T05:24:39;16.70;99.90
20068;DHT22;10194;50.824;7.134;2023-07-13T05:27:05;16.70;99.90
20068;DHT22;10194;50.824;7.134;2023-07-13T05:29:31;16.80;99.90
20068;DHT22;10194;50.824;7.134;2023-07-13T05:31:57;16.80;99.90
20068;DHT22;10194;50.824;7.134;2023-07-13T05:34:23;16.90;99.90
20068;DHT22;10194;50.824;7.134;2023-07-13T05:36:49;17.00;99.90
20068;DHT22;10194;50.824;7.134;2023-07-13T05:39:16;17.00;99.90
20068;DHT22;10194;50.824;7.134;2023-07-13T05:41:42;17.10;99.90
20068;DHT22;10194;50.824;7.134;2023-07-13T05:44:07;17.20;99.90
20068;DHT22;10194;50.824;7.134;2023-07-13T05:46:34;17.30;99.90
20068;DHT22;10194;50.824;7.134;2023-07-13T05:49:00;17.40;99.90
20068;DHT22;10194;50.824;7.134;2023-07-13T05:51:25;17.40;99.90
20068;DHT22;10194;50.824;7.134;2023-07-13T05:53:51;17.30;99.90
20068;DHT22;10194;50.824;7.134;2023-07-13T05:56:17;17.40;99.90
20068;DHT22;10194;50.824;7.134;2023-07-13T05:58:44;17.50;99.90
20068;DHT22;10194;50.824;7.134;2023-07-13T06:01:14;17.80;99.90
20068;DHT22;10194;50.824;7.134;2023-07-13T06:03:40;17.90;99.90
20068;DHT22;10194;50.824;7.134;2023-07-13T06:06:08;18.00;99.90
20068;DHT22;10194;50.824;7.134;2023-07-13T06:08:35;18.00;99.90
20068;DHT22;10194;50.824;7.134;2023-07-13T06:11:35;18.00;99.90
20068;DHT22;10194;50.824;7.134;2023-07-13T06:13:56;18.10;99.90
20068;DHT22;10194;50.824;7.134;2023-07-13T06:16:22;18.50;99.90
20068;DHT22;10194;50.824;7.134;2023-07-13T06:18:48;18.70;99.90
20068;DHT22;10194;50.824;7.134;2023-07-13T06:21:17;18.90;99.90
20068;DHT22;10194;50.824;7.134;2023-07-13T06:23:45;19.10;99.90
20068;DHT22;10194;50.824;7.134;2023-07-13T06:26:13;19.20;99.90
20068;DHT22;10194;50.824;7.134;2023-07-13T06:28:39;19.30;99.90
20068;DHT22;10194;50.824;7.134;2023-07-13T06:31:07;19.40;99.90
20068;DHT22;10194;50.824;7.134;2023-07-13T06:33:34;19.40;99.90
20068;DHT22;10194;50.824;7.134;2023-07-13T06:36:00;19.60;99.90
20068;DHT22;10194;50.824;7.134;2023-07-13T06:38:27;19.80;99.90
20068;DHT22;10194;50.824;7.134;2023-07-13T06:40:52;20.00;99.90
20068;DHT22;10194;50.824;7.134;2023-07-13T06:43:18;20.10;99.90
20068;DHT22;10194;50.824;7.134;2023-07-13T06:45:46;20.20;99.90
20068;DHT22;10194;50.824;7.134;2023-07-13T06:48:19;20.70;99.90
20068;DHT22;10194;50.824;7.134;2023-07-13T06:50:45;21.10;99.90
20068;DHT22;10194;50.824;7.134;2023-07-13T06:53:12;20.90;99.90
20068;DHT22;10194;50.824;7.134;2023-07-13T06:55:39;21.30;99.90
20068;DHT22;10194;50.824;7.134;2023-07-13T06:58:05;21.50;99.90
20068;DHT22;10194;50.824;7.134;2023-07-13T07:00:31;21.40;99.90
20068;DHT22;10194;50.824;7.134;2023-07-13T07:02:57;22.10;99.90
20068;DHT22;10194;50.824;7.134;2023-07-13T07:05:23;22.60;99.90
20068;DHT22;10194;50.824;7.134;2023-07-13T07:07:54;22.60;99.90
20068;DHT22;10194;50.824;7.134;2023-07-13T07:10:21;22.60;99.90
20068;DHT22;10194;50.824;7.134;2023-07-13T07:12:47;23.30;99.90
20068;DHT22;10194;50.824;7.134;2023-07-13T07:15:13;23.50;99.90
20068;DHT22;10194;50.824;7.134;2023-07-13T07:17:39;23.90;99.90
20068;DHT22;10194;50.824;7.134;2023-07-13T07:20:06;24.30;98.00
20068;DHT22;10194;50.824;7.134;2023-07-13T07:22:32;24.80;97.20
20068;DHT22;10194;50.824;7.134;2023-07-13T07:24:58;25.10;96.30
20068;DHT22;10194;50.824;7.134;2023-07-13T07:27:25;25.50;95.90
20068;DHT22;10194;50.824;7.134;2023-07-13T07:29:51;25.30;95.70
20068;DHT22;10194;50.824;7.134;2023-07-13T07:32:17;25.10;95.90
20068;DHT22;10194;50.824;7.134;2023-07-13T07:34:44;24.60;96.70
20068;DHT22;10194;50.824;7.134;2023-07-13T07:37:11;24.20;96.40
20068;DHT22;10194;50.824;7.134;2023-07-13T07:39:38;24.10;97.50
20068;DHT22;10194;50.824;7.134;2023-07-13T07:42:04;24.20;97.70
20068;DHT22;10194;50.824;7.134;2023-07-13T07:44:34;24.70;96.00
20068;DHT22;10194;50.824;7.134;2023-07-13T07:47:00;24.60;96.40
20068;DHT22;10194;50.824;7.134;2023-07-13T07:49:26;25.10;96.40
20068;DHT22;10194;50.824;7.134;2023-07-13T07:51:52;25.00;96.20
20068;DHT22;10194;50.824;7.134;2023-07-13T07:54:18;24.60;97.30
20068;DHT22;10194;50.824;7.134;2023-07-13T07:56:44;24.50;96.50
20068;DHT22;10194;50.824;7.134;2023-07-13T07:59:10;24.40;97.40
20068;DHT22;10194;50.824;7.134;2023-07-13T08:01:36;24.50;97.40
20068;DHT22;10194;50.824;7.134;2023-07-13T08:04:02;24.30;98.40
20068;DHT22;10194;50.824;7.134;2023-07-13T08:06:28;23.80;98.80
20068;DHT22;10194;50.824;7.134;2023-07-13T08:08:54;23.90;98.50
20068;DHT22;10194;50.824;7.134;2023-07-13T08:11:21;24.30;99.00
20068;DHT22;10194;50.824;7.134;2023-07-13T08:13:47;24.30;99.90
20068;DHT22;10194;50.824;7.134;2023-07-13T08:16:13;24.50;98.40
20068;DHT22;10194;50.824;7.134;2023-07-13T08:18:39;24.30;97.70
20068;DHT22;10194;50.824;7.134;2023-07-13T08:21:06;23.60;99.00
20068;DHT22;10194;50.824;7.134;2023-07-13T08:23:33;23.80;99.70
20068;DHT22;10194;50.824;7.134;2023-07-13T08:25:59;23.90;99.40
20068;DHT22;10194;50.824;7.134;2023-07-13T08:28:27;23.80;99.90
20068;DHT22;10194;50.824;7.134;2023-07-13T08:30:53;24.00;99.70
20068;DHT22;10194;50.824;7.134;2023-07-13T08:33:20;23.60;98.80
20068;DHT22;10194;50.824;7.134;2023-07-13T08:35:49;23.30;99.90
20068;DHT22;10194;50.824;7.134;2023-07-13T08:38:16;23.80;99.90
20068;DHT22;10194;50.824;7.134;2023-07-13T08:40:42;23.90;99.90
20068;DHT22;10194;50.824;7.134;2023-07-13T08:43:16;24.30;99.80
20068;DHT22;10194;50.824;7.134;2023-07-13T08:45:55;24.50;98.30
20068;DHT22;10194;50.824;7.134;2023-07-13T08:48:42;24.80;97.30
20068;DHT22;10194;50.824;7.134;2023-07-13T08:54:20;25.70;96.50
20068;DHT22;10194;50.824;7.134;2023-07-13T08:56:51;25.70;95.30
20068;DHT22;10194;50.824;7.134;2023-07-13T08:59:21;25.20;95.60
20068;DHT22;10194;50.824;7.134;2023-07-13T09:02:14;25.50;96.00
20068;DHT22;10194;50.824;7.134;2023-07-13T09:04:56;24.70;97.50
20068;DHT22;10194;50.824;7.134;2023-07-13T09:07:33;24.40;97.50
20068;DHT22;10194;50.824;7.134;2023-07-13T09:16:25;24.10;98.10
20068;DHT22;10194;50.824;7.134;2023-07-13T09:18:54;24.20;97.90
20068;DHT22;10194;50.824;7.134;2023-07-13T09:21:30;24.50;99.60
20068;DHT22;10194;50.824;7.134;2023-07-13T09:26:43;24.40;97.60
20068;DHT22;10194;50.824;7.134;2023-07-13T09:29:22;24.70;98.60
20068;DHT22;10194;50.824;7.134;2023-07-13T09:31:56;24.90;96.50
20068;DHT22;10194;50.824;7.134;2023-07-13T09:34:25;25.30;96.90
20068;DHT22;10194;50.824;7.134;2023-07-13T09:36:51;25.10;96.30
20068;DHT22;10194;50.824;7.134;2023-07-13T09:39:30;24.20;98.50
20068;DHT22;10194;50.824;7.134;2023-07-13T09:42:12;23.50;99.90
20068;DHT22;10194;50.824;7.134;2023-07-13T09:45:00;24.00;98.60
20068;DHT22;10194;50.824;7.134;2023-07-13T09:47:37;24.00;99.00
20068;DHT22;10194;50.824;7.134;2023-07-13T09:50:09;23.60;98.30
20068;DHT22;10194;50.824;7.134;2023-07-13T09:52:46;23.30;99.10
20068;DHT22;10194;50.824;7.134;2023-07-13T09:55:37;23.00;99.50
20068;DHT22;10194;50.824;7.134;2023-07-13T09:58:16;23.40;99.90
20068;DHT22;10194;50.824;7.134;2023-07-13T10:01:00;24.00;99.50
20068;DHT22;10194;50.824;7.134;2023-07-13T10:03:33;24.40;99.90
20068;DHT22;10194;50.824;7.134;2023-07-13T10:06:29;25.00;96.20
20068;DHT22;10194;50.824;7.134;2023-07-13T10:08:56;25.10;97.70
20068;DHT22;10194;50.824;7.134;2023-07-13T10:11:27;24.80;96.20
20068;DHT22;10194;50.824;7.134;2023-07-13T10:14:17;24.70;97.60
20068;DHT22;10194;50.824;7.134;2023-07-13T10:16:45;24.70;97.80
20068;DHT22;10194;50.824;7.134;2023-07-13T10:19:24;24.70;96.50
20068;DHT22;10194;50.824;7.134;2023-07-13T10:24:55;23.60;98.20
20068;DHT22;10194;50.824;7.134;2023-07-13T10:27:33;23.60;99.90
20068;DHT22;10194;50.824;7.134;2023-07-13T10:30:20;23.50;99.40
20068;DHT22;10194;50.824;7.134;2023-07-13T10:32:50;23.60;99.20
20068;DHT22;10194;50.824;7.134;2023-07-13T10:35:19;23.70;99.90
20068;DHT22;10194;50.824;7.134;2023-07-13T10:38:07;23.90;99.00
20068;DHT22;10194;50.824;7.134;2023-07-13T10:40:46;24.50;98.60
20068;DHT22;10194;50.824;7.134;2023-07-13T10:43:26;24.60;97.80
20068;DHT22;10194;50.824;7.134;2023-07-13T10:45:56;24.40;97.20
20068;DHT22;10194;50.824;7.134;2023-07-13T10:48:23;24.50;96.80
20068;DHT22;10194;50.824;7.134;2023-07-13T10:50:51;24.40;98.70
20068;DHT22;10194;50.824;7.134;2023-07-13T10:53:37;24.40;97.50
20068;DHT22;10194;50.824;7.134;2023-07-13T10:56:27;24.60;96.90
20068;DHT22;10194;50.824;7.134;2023-07-13T10:59:24;24.20;96.70
20068;DHT22;10194;50.824;7.134;2023-07-13T11:01:57;24.30;96.90
20068;DHT22;10194;50.824;7.134;2023-07-13T11:04:29;24.40;98.10
20068;DHT22;10194;50.824;7.134;2023-07-13T11:07:17;24.30;97.10
20068;DHT22;10194;50.824;7.134;2023-07-13T11:09:50;24.60;97.00
20068;DHT22;10194;50.824;7.134;2023-07-13T11:17:47;24.40;93.90
20068;DHT22;10194;50.824;7.134;2023-07-13T11:20:32;23.90;94.50
20068;DHT22;10194;50.824;7.134;2023-07-13T11:23:19;23.90;94.70
20068;DHT22;10194;50.824;7.134;2023-07-13T11:25:47;23.90;95.00
20068;DHT22;10194;50.824;7.134;2023-07-13T11:28:22;24.20;94.70
20068;DHT22;10194;50.824;7.134;2023-07-13T11:33:56;24.40;93.60
20068;DHT22;10194;50.824;7.134;2023-07-13T11:36:28;24.30;93.80
20068;DHT22;10194;50.824;7.134;2023-07-13T11:39:11;24.20;93.90
20068;DHT22;10194;50.824;7.134;2023-07-13T11:42:07;24.10;93.90
20068;DHT22;10194;50.824;7.134;2023-07-13T11:44:43;24.20;93.30
20068;DHT22;10194;50.824;7.134;2023-07-13T11:47:17;24.40;93.60
20068;DHT22;10194;50.824;7.134;2023-07-13T11:49:50;24.20;93.60
20068;DHT22;10194;50.824;7.134;2023-07-13T11:52:37;24.10;92.50
20068;DHT22;10194;50.824;7.134;2023-07-13T11:55:15;24.10;92.70
20068;DHT22;10194;50.824;7.134;2023-07-13T11:57:50;24.20;93.10
20068;DHT22;10194;50.824;7.134;2023-07-13T12:00:23;24.20;93.20
20068;DHT22;10194;50.824;7.134;2023-07-13T12:02:55;23.90;93.40
20068;DHT22;10194;50.824;7.134;2023-07-13T12:05:22;23.90;94.30
20068;DHT22;10194;50.824;7.134;2023-07-13T12:07:49;23.90;95.30
20068;DHT22;10194;50.824;7.134;2023-07-13T12:10:27;24.00;96.40
20068;DHT22;10194;50.824;7.134;2023-07-13T12:13:03;23.90;95.60
20068;DHT22;10194;50.824;7.134;2023-07-13T12:15:37;24.10;94.30
20068;DHT22;10194;50.824;7.134;2023-07-13T12:18:14;24.20;94.40
20068;DHT22;10194;50.824;7.134;2023-07-13T12:20:58;24.40;95.50
20068;DHT22;10194;50.824;7.134;2023-07-13T12:23:32;24.10;94.70
20068;DHT22;10194;50.824;7.134;2023-07-13T12:26:03;23.60;95.10
20068;DHT22;10194;50.824;7.134;2023-07-13T12:28:46;23.40;96.30
20068;DHT22;10194;50.824;7.134;2023-07-13T12:34:17;23.40;96.90
20068;DHT22;10194;50.824;7.134;2023-07-13T12:37:02;23.50;96.90
20068;DHT22;10194;50.824;7.134;2023-07-13T12:39:45;23.60;95.40
20068;DHT22;10194;50.824;7.134;2023-07-13T12:44:57;23.40;95.60
20068;DHT22;10194;50.824;7.134;2023-07-13T12:47:25;23.60;96.30
20068;DHT22;10194;50.824;7.134;2023-07-13T12:49:57;23.70;95.90
20068;DHT22;10194;50.824;7.134;2023-07-13T12:52:29;23.80;94.90
20068;DHT22;10194;50.824;7.134;2023-07-13T12:55:05;23.90;94.20
20068;DHT22;10194;50.824;7.134;2023-07-13T12:57:40;24.00;92.40
20068;DHT22;10194;50.824;7.134;2023-07-13T13:00:25;23.90;93.40
20068;DHT22;10194;50.824;7.134;2023-07-13T13:02:58;23.90;93.60
20068;DHT22;10194;50.824;7.134;2023-07-13T13:05:30;24.00;92.80
20068;DHT22;10194;50.824;7.134;2023-07-13T13:07:57;24.00;92.20
20068;DHT22;10194;50.824;7.134;2023-07-13T13:10:23;23.90;92.70
20068;DHT22;10194;50.824;7.134;2023-07-13T13:12:50;23.90;92.60
20068;DHT22;10194;50.824;7.134;2023-07-13T13:15:16;23.90;92.80
20068;DHT22;10194;50.824;7.134;2023-07-13T13:17:42;23.80;93.00
20068;DHT22;10194;50.824;7.134;2023-07-13T13:20:19;23.90;92.60
20068;DHT22;10194;50.824;7.134;2023-07-13T13:22:45;24.10;92.40
20068;DHT22;10194;50.824;7.134;2023-07-13T13:25:12;24.30;91.70
20068;DHT22;10194;50.824;7.134;2023-07-13T13:27:40;24.30;90.90
20068;DHT22;10194;50.824;7.134;2023-07-13T13:30:11;24.30;91.50
20068;DHT22;10194;50.824;7.134;2023-07-13T13:32:42;24.40;91.80
20068;DHT22;10194;50.824;7.134;2023-07-13T13:35:16;24.70;92.20
20068;DHT22;10194;50.824;7.134;2023-07-13T13:37:46;24.80;91.40
20068;DHT22;10194;50.824;7.134;2023-07-13T13:40:19;24.90;91.20
20068;DHT22;10194;50.824;7.134;2023-07-13T13:42:46;24.70;91.00
20068;DHT22;10194;50.824;7.134;2023-07-13T13:45:12;24.80;91.40
20068;DHT22;10194;50.824;7.134;2023-07-13T13:47:39;24.70;91.80
20068;DHT22;10194;50.824;7.134;2023-07-13T13:50:14;24.50;91.20
20068;DHT22;10194;50.824;7.134;2023-07-13T13:52:44;24.10;90.60
20068;DHT22;10194;50.824;7.134;2023-07-13T13:55:18;24.20;91.80
20068;DHT22;10194;50.824;7.134;2023-07-13T13:57:46;24.00;92.20
20068;DHT22;10194;50.824;7.134;2023-07-13T14:00:13;24.00;91.60
20068;DHT22;10194;50.824;7.134;2023-07-13T14:02:48;23.90;92.30
20068;DHT22;10194;50.824;7.134;2023-07-13T14:05:21;23.80;91.40
20068;DHT22;10194;50.824;7.134;2023-07-13T14:07:47;23.90;92.10
20068;DHT22;10194;50.824;7.134;2023-07-13T14:10:15;23.90;92.30
20068;DHT22;10194;50.824;7.134;2023-07-13T14:12:47;24.00;92.30
20068;DHT22;10194;50.824;7.134;2023-07-13T14:15:27;24.20;91.90
20068;DHT22;10194;50.824;7.134;2023-07-13T14:17:57;24.20;91.30
20068;DHT22;10194;50.824;7.134;2023-07-13T14:20:24;24.30;90.60
20068;DHT22;10194;50.824;7.134;2023-07-13T14:22:52;24.20;90.90
20068;DHT22;10194;50.824;7.134;2023-07-13T14:25:19;24.40;91.30
20068;DHT22;10194;50.824;7.134;2023-07-13T14:27:48;24.50;91.30
20068;DHT22;10194;50.824;7.134;2023-07-13T14:30:18;24.60;91.70
20068;DHT22;10194;50.824;7.134;2023-07-13T14:32:45;24.70;89.00
20068;DHT22;10194;50.824;7.134;2023-07-13T14:35:13;24.90;90.30
20068;DHT22;10194;50.824;7.134;2023-07-13T14:37:41;25.20;87.40
20068;DHT22;10194;50.824;7.134;2023-07-13T14:40:30;25.20;85.50
20068;DHT22;10194;50.824;7.134;2023-07-13T14:42:57;25.00;87.20
20068;DHT22;10194;50.824;7.134;2023-07-13T14:45:24;25.10;87.00
20068;DHT22;10194;50.824;7.134;2023-07-13T14:47:51;25.10;87.50
20068;DHT22;10194;50.824;7.134;2023-07-13T14:50:24;24.90;86.30
20068;DHT22;10194;50.824;7.134;2023-07-13T14:52:56;25.00;89.90
20068;DHT22;10194;50.824;7.134;2023-07-13T14:55:22;25.10;87.90
20068;DHT22;10194;50.824;7.134;2023-07-13T14:57:50;25.10;87.60
20068;DHT22;10194;50.824;7.134;2023-07-13T15:00:20;25.00;87.30
20068;DHT22;10194;50.824;7.134;2023-07-13T15:02:52;25.20;88.80
20068;DHT22;10194;50.824;7.134;2023-07-13T15:05:28;25.30;85.10
20068;DHT22;10194;50.824;7.134;2023-07-13T15:07:58;25.30;85.20
20068;DHT22;10194;50.824;7.134;2023-07-13T15:10:28;25.10;85.70
20068;DHT22;10194;50.824;7.134;2023-07-13T15:13:20;25.10;85.70
20068;DHT22;10194;50.824;7.134;2023-07-13T15:15:53;24.90;85.50
20068;DHT22;10194;50.824;7.134;2023-07-13T15:18:21;24.60;86.40
20068;DHT22;10194;50.824;7.134;2023-07-13T15:20:49;24.50;89.00
20068;DHT22;10194;50.824;7.134;2023-07-13T15:23:17;24.50;88.10
20068;DHT22;10194;50.824;7.134;2023-07-13T15:25:44;24.70;86.80
20068;DHT22;10194;50.824;7.134;2023-07-13T15:28:11;24.70;88.30
20068;DHT22;10194;50.824;7.134;2023-07-13T15:30:43;24.70;89.10
20068;DHT22;10194;50.824;7.134;2023-07-13T15:33:17;24.80;89.00
20068;DHT22;10194;50.824;7.134;2023-07-13T15:35:48;24.80;88.90
20068;DHT22;10194;50.824;7.134;2023-07-13T15:38:17;24.90;88.90
20068;DHT22;10194;50.824;7.134;2023-07-13T15:40:48;24.80;88.00
20068;DHT22;10194;50.824;7.134;2023-07-13T15:43:16;24.90;88.20
20068;DHT22;10194;50.824;7.134;2023-07-13T15:45:43;24.80;89.10
20068;DHT22;10194;50.824;7.134;2023-07-13T15:48:18;24.80;86.20
20068;DHT22;10194;50.824;7.134;2023-07-13T15:50:51;24.80;88.20
20068;DHT22;10194;50.824;7.134;2023-07-13T15:53:24;24.80;86.60
20068;DHT22;10194;50.824;7.134;2023-07-13T15:55:51;24.80;85.60
20068;DHT22;10194;50.824;7.134;2023-07-13T15:58:18;24.70;87.70
20068;DHT22;10194;50.824;7.134;2023-07-13T16:00:44;24.60;87.00
20068;DHT22;10194;50.824;7.134;2023-07-13T16:03:11;24.50;87.70
20068;DHT22;10194;50.824;7.134;2023-07-13T16:05:37;24.40;89.50
20068;DHT22;10194;50.824;7.134;2023-07-13T16:08:05;24.40;89.10
20068;DHT22;10194;50.824;7.134;2023-07-13T16:10:36;24.30;86.10
20068;DHT22;10194;50.824;7.134;2023-07-13T16:13:24;24.10;86.80
20068;DHT22;10194;50.824;7.134;2023-07-13T16:15:51;24.10;87.00